Airfield :
LOGIN :

Register | Disclaimer

   EN    FR    IT 

 










Legend :    VFR   Marginal VFR   IFR   Intensive IFR   Very Intensive IFR
Visi :
Ceiling :
>= 8 km
>= 3000ft
5 to 8 km
1000 to 3000 ft
1500m to 5 km
500 to 1000 ft
800 to 1500m
200 to 500 ft
< 800m
< 200 ft
Symbols :   Thunderstorms  Fog  Heavy snow  Heavy precipitations  Wind > 20 kt
SIGMETs :     Misc.  Thunderstorms  Icing  Turbulence  Mountain Waves  Volcanic Ashes







- Airport Elevation : 219 ft
- IATA code : DNR
- Download approach charts


LFRD - Dinard

CURRENT METAR :
  • 180730Z AUTO 24010KT 5000 -RA BR OVC009 11/10 Q1009 TEMPO RA BKN010 BECMG 27015G25KT

EXPIRED METARs :
  • 180700Z AUTO 23011KT 7000 -DZ OVC010 11/10 Q1008 TEMPO 4000 RA BECMG 27015G25KT
  • 180630Z AUTO 23012KT 9000 -DZ OVC009 11/10 Q1008 TEMPO 4000 RA BKN012 BECMG 27015G25KT
  • 180600Z AUTO 24013KT 6000 -DZ OVC011 11/10 Q1008 TEMPO 4000 RA BECMG 27015G25KT
  • 180530Z AUTO 24015KT 9999 -DZ OVC012 11/10 Q1008 TEMPO 4000 RA BECMG 27015G25KT
  • 180500Z AUTO 24016KT 9999 -DZ OVC013 11/10 Q1008 TEMPO 4000 RADZ BKN008 BECMG 27015G25KT

TAF AMD TAF LFRD
Valid from the 18 at 06:00 until the 19 at 06:00 UTC


180649Z 1806/1906 23020G35KT 9999 BKN020
TEMPO 1806/1813 4000 RA BKN010
BECMG 1807/1809 27015G25KT
TEMPO 1817/1824 4000 SHRA BKN020TCU
BECMG 1821/1823 25012KT
TEMPO 1900/1906 4000 SHRA BKN015CB
ATIS : +33 2 99 16 81 50
No reported NOTAMs for that airfield.
1 SIGMET reported for the Brest FIR (LFRR) :
 
Severe turbulence
LFRR SIGMET 2 VALID 180600/180900 LFPW
LFRR BREST FIR/UIR SEV TURB FCST N OF LINE N4715 W00015 - N4645 W00800 SFC/FL060 STNR NC=



MET'MAP, your aeronautical weather chart ! - Copyright ORBIFLY December 2007 - Disclaimer

ORBIFLY MET'MAP TEAM :

Programming & Development : Alexandra Zaïnal
Concept & Development : Baudouin d'Aumeries
Co-Development & Prog : Marc-Olivier Méhu
Technical & hardware support : Manuel Goepfert

Contact : metmap@orbifly.com




SOURCES & CREDITS :

   NOAA